Terminal Aerodrome Forecast
Issued by NWS Wakefield, VA

Home | Current Version | Previous Version | Text Only | Print | Product List | Glossary On
Versions: 1 2 3 4 5 6 7 8 9 10 11 12
000
FTUS41 KAKQ 040542
TAFRIC
TAF
KRIC 040542Z 0406/0506 34004KT P6SM BKN250
     FM050000 VRB03KT P6SM -RA SCT040 OVC060
     FM050400 VRB03KT 4SM -RA BR OVC025=

USA.gov is the U.S. government's official web portal to all federal, state and local government web resources and services.